Time;durP1;ratioP1;P1;durP2;ratioP2;P2;SDS_P1;SDS_P2;PMS_P1;PMS_P2;Temp;Humidity;BMP_temperature;BMP_pressure;BME280_temperature;BME280_humidity;BME280_pressure;Samples;Min_cycle;Max_cycle;Signal;HPM_P1;HPM_P2
2021/10/20 00:01:21;;;;;;;5.80;2.33;;;12.20;64.00;;;;;;5112807;28;20084;-76
2021/10/20 00:03:47;;;;;;;5.80;2.92;;;12.20;64.00;;;;;;5112875;28;20099;-77
2021/10/20 00:06:13;;;;;;;5.22;3.05;;;12.20;64.20;;;;;;5112563;28;20072;-76
2021/10/20 00:08:39;;;;;;;2.72;2.08;;;12.20;64.40;;;;;;5112670;28;20118;-76
2021/10/20 00:11:04;;;;;;;6.80;2.65;;;12.10;64.40;;;;;;5112620;28;20027;-76
2021/10/20 00:13:30;;;;;;;3.45;2.53;;;12.00;64.80;;;;;;5112709;28;20024;-76
2021/10/20 00:15:56;;;;;;;3.28;2.60;;;12.00;64.80;;;;;;5112673;28;20016;-76
2021/10/20 00:18:21;;;;;;;4.20;2.72;;;12.00;65.20;;;;;;5112749;28;20028;-76
2021/10/20 00:20:47;;;;;;;6.85;2.78;;;12.00;65.50;;;;;;5112599;28;20479;-76
2021/10/20 00:23:14;;;;;;;4.70;2.35;;;12.00;65.50;;;;;;5112704;28;20478;-76
2021/10/20 00:25:40;;;;;;;5.22;2.50;;;12.00;65.10;;;;;;5111424;28;20024;-76
2021/10/20 00:28:06;;;;;;;6.22;2.95;;;12.00;65.50;;;;;;5111335;28;20039;-77
2021/10/20 00:30:34;;;;;;;3.65;2.25;;;12.00;65.70;;;;;;5112697;28;20034;-77
2021/10/20 00:33:00;;;;;;;4.28;2.28;;;11.90;65.90;;;;;;5113535;28;20150;-77
2021/10/20 00:35:26;;;;;;;3.65;2.50;;;11.90;66.40;;;;;;5116686;28;20059;-77
2021/10/20 00:37:52;;;;;;;4.57;2.65;;;11.80;66.20;;;;;;5116550;28;20487;-77
2021/10/20 00:40:18;;;;;;;3.58;2.63;;;11.80;66.10;;;;;;5116446;28;20030;-77
2021/10/20 00:42:44;;;;;;;3.88;1.88;;;11.80;65.80;;;;;;5116579;28;20106;-78
2021/10/20 00:45:10;;;;;;;3.40;2.38;;;11.80;65.90;;;;;;5116269;28;20028;-78
2021/10/20 00:47:37;;;;;;;3.67;2.45;;;11.80;65.60;;;;;;5116384;28;20122;-77
2021/10/20 00:50:06;;;;;;;4.28;2.50;;;11.80;65.60;;;;;;5116225;28;20031;-77
2021/10/20 00:52:33;;;;;;;7.65;2.88;;;11.80;65.80;;;;;;5116202;28;20118;-77
2021/10/20 00:55:00;;;;;;;6.30;2.47;;;11.80;65.90;;;;;;5116286;28;20031;-77
2021/10/20 00:57:28;;;;;;;3.88;2.47;;;11.80;65.40;;;;;;5114841;28;20058;-77
2021/10/20 00:59:56;;;;;;;4.57;2.35;;;12.00;64.60;;;;;;5116121;28;20062;-77
2021/10/20 01:02:22;;;;;;;4.63;2.47;;;12.00;64.50;;;;;;5116049;28;20030;-77
2021/10/20 01:04:48;;;;;;;4.88;2.42;;;12.10;64.10;;;;;;5116100;28;20031;-77
2021/10/20 01:07:16;;;;;;;5.90;2.42;;;12.20;63.50;;;;;;5115639;28;20034;-77
2021/10/20 01:09:42;;;;;;;4.63;2.50;;;12.40;62.60;;;;;;5116209;28;20027;-77
2021/10/20 01:12:08;;;;;;;3.47;2.33;;;12.50;61.60;;;;;;5115860;28;20356;-78
2021/10/20 01:14:33;;;;;;;3.47;2.45;;;12.60;61.00;;;;;;5116015;28;20035;-78
2021/10/20 01:17:00;;;;;;;4.45;2.28;;;12.90;56.30;;;;;;5097474;28;20525;-78
2021/10/20 01:19:26;;;;;;;3.63;2.47;;;13.10;58.30;;;;;;5115759;28;20020;-78
2021/10/20 01:21:52;;;;;;;2.50;1.90;;;13.10;58.10;;;;;;5115660;28;20034;-77
2021/10/20 01:24:22;;;;;;;3.15;2.03;;;13.20;58.20;;;;;;5115633;28;20463;-77
2021/10/20 01:26:53;;;;;;;3.45;2.00;;;13.20;58.40;;;;;;5115545;28;20058;-77
2021/10/20 01:29:21;;;;;;;4.65;2.03;;;13.20;58.30;;;;;;5124275;28;20031;-77
2021/10/20 01:31:51;;;;;;;3.80;2.58;;;13.10;58.40;;;;;;5126635;28;20042;-76
2021/10/20 01:34:17;;;;;;;2.55;2.10;;;13.10;57.50;;;;;;5115787;28;20488;-76
2021/10/20 01:36:43;;;;;;;3.92;2.40;;;13.20;57.70;;;;;;5115800;28;20345;-76
2021/10/20 01:39:09;;;;;;;4.03;2.22;;;13.20;58.00;;;;;;5115335;28;20186;-78
2021/10/20 01:41:36;;;;;;;5.30;2.30;;;13.20;58.00;;;;;;5115300;28;20432;-78
2021/10/20 01:44:02;;;;;;;3.75;2.22;;;13.20;56.40;;;;;;5114495;28;20383;-77
2021/10/20 01:46:27;;;;;;;4.18;2.08;;;13.40;53.80;;;;;;5114754;28;20027;-77
2021/10/20 01:48:53;;;;;;;2.58;2.00;;;13.50;52.10;;;;;;5115011;28;20615;-78
2021/10/20 01:51:18;;;;;;;3.80;2.30;;;13.60;53.10;;;;;;5114993;28;20042;-79
2021/10/20 01:53:44;;;;;;;5.10;2.22;;;13.60;54.20;;;;;;5115342;28;20032;-78
2021/10/20 01:56:12;;;;;;;3.35;1.90;;;13.60;55.00;;;;;;5115053;28;20032;-77
2021/10/20 01:58:39;;;;;;;5.45;2.20;;;13.50;55.20;;;;;;5115136;28;20039;-77
2021/10/20 02:01:07;;;;;;;3.10;1.98;;;13.40;54.80;;;;;;5115039;28;20364;-77
2021/10/20 02:03:35;;;;;;;3.17;1.98;;;13.40;54.10;;;;;;5114765;28;20054;-77
2021/10/20 02:06:01;;;;;;;5.70;2.17;;;13.50;53.70;;;;;;5114766;28;20104;-77
2021/10/20 02:08:27;;;;;;;5.00;2.47;;;13.50;53.30;;;;;;5114598;28;20114;-77
2021/10/20 02:10:53;;;;;;;4.95;2.08;;;13.50;55.10;;;;;;5114589;28;20055;-77
2021/10/20 02:13:18;;;;;;;3.17;2.10;;;13.50;54.80;;;;;;5114467;28;20121;-75
2021/10/20 02:15:44;;;;;;;3.65;2.38;;;13.70;52.80;;;;;;5114648;28;20423;-76
2021/10/20 02:18:10;;;;;;;4.07;1.75;;;13.80;52.90;;;;;;5114305;28;20099;-76
2021/10/20 02:20:35;;;;;;;2.83;1.95;;;13.90;52.90;;;;;;5114607;28;20020;-76
2021/10/20 02:23:01;;;;;;;3.00;2.10;;;13.90;50.20;;;;;;5114504;28;20109;-75
2021/10/20 02:25:27;;;;;;;5.07;2.22;;;14.00;53.50;;;;;;5114531;28;20060;-76
2021/10/20 02:27:52;;;;;;;4.40;1.70;;;13.90;52.00;;;;;;5114276;28;20039;-76
2021/10/20 02:30:18;;;;;;;4.35;1.70;;;14.00;48.90;;;;;;5114239;28;20034;-77
2021/10/20 02:32:44;;;;;;;3.42;2.15;;;14.00;50.40;;;;;;5114184;28;20112;-76
2021/10/20 02:35:10;;;;;;;3.67;1.77;;;14.20;44.00;;;;;;5114222;28;20118;-76
2021/10/20 02:37:36;;;;;;;3.15;1.98;;;14.50;40.90;;;;;;5114063;28;20024;-78
2021/10/20 02:40:04;;;;;;;2.90;1.83;;;14.50;45.60;;;;;;5114182;28;20058;-76
2021/10/20 02:42:30;;;;;;;3.05;2.00;;;14.40;46.50;;;;;;5119968;28;20042;-76
2021/10/20 02:44:56;;;;;;;2.83;1.60;;;14.40;44.30;;;;;;5112474;28;20118;-76
2021/10/20 02:47:21;;;;;;;4.07;2.10;;;14.50;41.40;;;;;;5114498;28;20032;-76
2021/10/20 02:49:47;;;;;;;2.35;1.40;;;14.40;47.60;;;;;;5114376;28;20433;-78
2021/10/20 02:52:13;;;;;;;3.88;2.15;;;14.30;44.40;;;;;;5112378;28;20499;-76
2021/10/20 02:54:38;;;;;;;3.50;2.10;;;14.40;47.00;;;;;;5113871;28;20028;-77
2021/10/20 02:57:04;;;;;;;3.08;2.00;;;14.10;50.20;;;;;;5113646;28;20376;-76
2021/10/20 02:59:30;;;;;;;3.50;1.90;;;13.80;50.70;;;;;;5113582;28;20030;-78
2021/10/20 03:01:55;;;;;;;4.20;1.88;;;13.70;49.80;;;;;;5113725;28;20472;-78
2021/10/20 03:04:21;;;;;;;5.88;2.55;;;13.80;45.60;;;;;;5113607;28;20019;-78
2021/10/20 03:06:46;;;;;;;3.63;2.33;;;13.70;49.50;;;;;;5113477;28;20116;-78
2021/10/20 03:09:12;;;;;;;4.40;1.83;;;13.60;49.90;;;;;;5113485;28;20088;-79
2021/10/20 03:11:38;;;;;;;5.15;2.95;;;13.70;44.80;;;;;;5113398;28;20475;-78
2021/10/20 03:14:03;;;;;;;9.20;3.10;;;13.50;52.00;;;;;;5113345;28;20035;-78
2021/10/20 03:16:29;;;;;;;6.35;4.32;;;13.30;53.70;;;;;;5113274;28;20024;-78
2021/10/20 03:18:55;;;;;;;23.92;12.70;;;13.00;54.70;;;;;;5113496;28;20073;-78
2021/10/20 03:21:21;;;;;;;16.08;8.00;;;12.90;55.10;;;;;;5113296;28;20023;-78
2021/10/20 03:23:46;;;;;;;6.63;3.67;;;12.70;56.60;;;;;;5113355;28;20419;-77
2021/10/20 03:26:12;;;;;;;5.60;3.58;;;12.60;55.20;;;;;;5113412;28;20019;-77
2021/10/20 03:28:37;;;;;;;4.25;2.72;;;12.60;56.10;;;;;;5113217;28;20039;-75
2021/10/20 03:31:03;;;;;;;5.35;2.33;;;12.50;56.20;;;;;;5112941;28;20114;-75
2021/10/20 03:33:29;;;;;;;4.90;2.42;;;12.50;55.60;;;;;;5113211;28;20081;-75
2021/10/20 03:35:54;;;;;;;12.68;2.97;;;12.60;56.00;;;;;;5113112;28;20372;-77
2021/10/20 03:38:20;;;;;;;3.17;2.03;;;12.50;56.40;;;;;;5113159;28;20463;-76
2021/10/20 03:40:46;;;;;;;7.53;2.25;;;12.40;56.50;;;;;;5113025;28;20095;-78
2021/10/20 03:43:11;;;;;;;4.85;2.80;;;12.40;57.40;;;;;;5112838;28;20031;-76
2021/10/20 03:45:37;;;;;;;4.00;2.30;;;12.30;58.80;;;;;;5112830;28;20023;-77
2021/10/20 03:48:03;;;;;;;4.70;2.50;;;12.10;60.00;;;;;;5112738;28;20023;-76
2021/10/20 03:50:28;;;;;;;4.85;2.60;;;11.90;61.10;;;;;;5112871;28;20034;-76
2021/10/20 03:52:54;;;;;;;5.60;2.60;;;11.80;61.70;;;;;;5112836;28;20468;-76
2021/10/20 03:55:20;;;;;;;4.70;2.42;;;11.70;63.30;;;;;;5112740;28;20032;-76
2021/10/20 03:57:45;;;;;;;3.97;2.30;;;11.60;62.50;;;;;;5112972;28;20106;-76
2021/10/20 04:00:14;;;;;;;6.63;2.53;;;11.60;62.60;;;;;;5112825;28;20089;-76
2021/10/20 04:02:44;;;;;;;6.43;2.53;;;11.50;62.20;;;;;;5112876;28;20496;-76
2021/10/20 04:05:14;;;;;;;4.72;2.95;;;11.50;61.60;;;;;;5112684;28;20038;-77
2021/10/20 04:07:41;;;;;;;6.15;3.17;;;11.50;60.30;;;;;;5113285;28;20057;-77
2021/10/20 04:10:08;;;;;;;5.45;2.45;;;11.60;59.80;;;;;;5116848;28;20571;-77
2021/10/20 04:12:33;;;;;;;2.83;1.98;;;11.70;58.80;;;;;;5116841;28;20085;-76
2021/10/20 04:14:59;;;;;;;4.45;2.60;;;11.80;58.10;;;;;;5115522;28;20028;-76
2021/10/20 04:17:25;;;;;;;3.67;2.38;;;11.90;57.00;;;;;;5116895;28;20024;-78
2021/10/20 04:19:50;;;;;;;6.47;2.22;;;12.00;56.20;;;;;;5116857;28;20102;-77
2021/10/20 04:22:16;;;;;;;3.35;2.22;;;12.20;54.70;;;;;;5116783;28;20039;-76
2021/10/20 04:24:41;;;;;;;2.63;1.88;;;12.30;53.70;;;;;;5116713;28;20027;-77
2021/10/20 04:27:07;;;;;;;5.10;1.92;;;12.50;51.30;;;;;;5116764;28;20047;-76
2021/10/20 04:29:32;;;;;;;3.25;1.65;;;12.60;53.70;;;;;;5116541;28;20078;-76
2021/10/20 04:31:58;;;;;;;6.55;2.22;;;12.60;51.60;;;;;;5115139;28;20054;-77
2021/10/20 04:34:24;;;;;;;6.70;1.88;;;12.60;53.90;;;;;;5116426;28;20020;-77
2021/10/20 04:36:50;;;;;;;4.07;2.20;;;12.60;53.00;;;;;;5116680;28;20427;-78
2021/10/20 04:39:15;;;;;;;7.07;2.50;;;12.50;54.70;;;;;;5116470;28;20035;-76
2021/10/20 04:41:41;;;;;;;4.20;2.03;;;12.50;55.20;;;;;;5116347;28;20077;-77
2021/10/20 04:44:06;;;;;;;5.03;2.50;;;12.40;55.20;;;;;;5116004;28;20077;-77
2021/10/20 04:46:32;;;;;;;6.35;2.20;;;12.40;55.60;;;;;;5116241;28;20023;-76
2021/10/20 04:48:57;;;;;;;3.53;2.10;;;12.30;56.00;;;;;;5116006;28;20120;-75
2021/10/20 04:51:23;;;;;;;8.05;2.33;;;12.30;56.40;;;;;;5115965;28;20039;-75
2021/10/20 04:53:48;;;;;;;7.55;2.67;;;12.20;55.70;;;;;;5116000;28;20028;-77
2021/10/20 04:56:14;;;;;;;5.70;2.70;;;12.20;56.10;;;;;;5115966;28;20046;-77
2021/10/20 04:58:39;;;;;;;8.43;3.67;;;12.10;55.00;;;;;;5115769;28;20031;-75
2021/10/20 05:01:05;;;;;;;10.35;3.85;;;12.10;57.00;;;;;;5115764;28;20023;-76
2021/10/20 05:03:31;;;;;;;6.50;3.58;;;12.00;57.60;;;;;;5115668;28;20041;-75
2021/10/20 05:05:56;;;;;;;6.55;2.70;;;12.00;57.10;;;;;;5115770;28;20027;-76
2021/10/20 05:08:22;;;;;;;4.35;2.58;;;11.90;56.90;;;;;;5115673;28;20034;-76
2021/10/20 05:10:47;;;;;;;6.45;2.97;;;12.00;56.40;;;;;;5115755;28;20024;-76
2021/10/20 05:13:13;;;;;;;8.65;3.58;;;12.00;56.90;;;;;;5115500;28;20024;-77
2021/10/20 05:15:39;;;;;;;9.10;3.83;;;12.00;57.30;;;;;;5115803;28;20043;-77
2021/10/20 05:18:05;;;;;;;12.55;5.22;;;12.00;58.10;;;;;;5115584;28;20028;-77
2021/10/20 05:20:30;;;;;;;11.75;5.78;;;11.90;59.00;;;;;;5113704;28;20011;-77
2021/10/20 05:22:56;;;;;;;10.35;5.10;;;11.90;59.50;;;;;;5115380;28;20031;-78
2021/10/20 05:25:22;;;;;;;12.60;5.30;;;11.80;60.20;;;;;;5113522;28;20062;-79
2021/10/20 05:27:47;;;;;;;14.25;5.72;;;11.70;61.00;;;;;;5115054;28;20102;-77
2021/10/20 05:30:13;;;;;;;12.35;4.88;;;11.60;62.90;;;;;;5114479;28;20055;-77
2021/10/20 05:32:39;;;;;;;13.73;5.90;;;11.40;62.70;;;;;;5114953;28;20043;-78
2021/10/20 05:35:05;;;;;;;14.50;4.50;;;11.40;63.30;;;;;;5115080;28;20031;-78
2021/10/20 05:37:31;;;;;;;10.85;4.28;;;11.20;63.80;;;;;;5115722;28;20478;-78
2021/10/20 05:39:57;;;;;;;9.25;4.18;;;11.20;63.90;;;;;;5115056;28;20023;-78
2021/10/20 05:42:22;;;;;;;8.18;4.10;;;11.10;63.90;;;;;;5115321;28;20020;-79
2021/10/20 05:44:48;;;;;;;8.50;3.42;;;11.20;63.50;;;;;;5115459;28;20039;-78
2021/10/20 05:47:14;;;;;;;7.18;3.40;;;11.10;63.60;;;;;;5116752;28;20383;-77
2021/10/20 05:49:39;;;;;;;6.25;3.28;;;11.10;63.60;;;;;;5115353;28;20023;-76
2021/10/20 05:52:06;;;;;;;14.45;3.75;;;11.10;62.60;;;;;;5115589;28;20042;-84
2021/10/20 05:54:32;;;;;;;8.18;3.08;;;11.20;67.10;;;;;;5115650;28;20031;-81
2021/10/20 05:56:58;;;;;;;11.70;3.42;;;11.50;71.50;;;;;;5115572;28;20020;-83
2021/10/20 05:59:25;;;;;;;11.30;3.78;;;11.80;66.40;;;;;;5115261;28;20110;-88
2021/10/20 06:01:51;;;;;;;6.43;3.35;;;11.90;67.20;;;;;;5114903;28;20387;-85
2021/10/20 06:04:18;;;;;;;13.65;3.78;;;12.10;64.40;;;;;;5115991;28;20202;-91
2021/10/20 06:06:44;;;;;;;12.00;4.18;;;12.20;66.80;;;;;;5117059;28;20030;-87
2021/10/20 06:09:10;;;;;;;15.60;6.10;;;12.30;67.10;;;;;;5123843;28;20045;-85
2021/10/20 06:11:36;;;;;;;23.70;7.05;;;12.40;64.00;;;;;;5126185;28;20075;-87
2021/10/20 06:14:02;;;;;;;15.82;6.22;;;12.40;66.10;;;;;;5123066;28;20038;-90
2021/10/20 06:16:27;;;;;;;13.48;5.47;;;12.40;63.60;;;;;;5119556;28;20023;-83
2021/10/20 06:18:53;;;;;;;13.02;5.28;;;12.30;62.90;;;;;;5114109;28;20110;-80
2021/10/20 06:21:19;;;;;;;15.35;4.93;;;12.20;60.40;;;;;;5114599;28;20408;-80
2021/10/20 06:23:44;;;;;;;10.45;4.60;;;11.90;60.40;;;;;;5114464;28;20332;-78
2021/10/20 06:26:10;;;;;;;13.75;6.22;;;11.70;61.40;;;;;;5114446;28;20038;-80
2021/10/20 06:28:36;;;;;;;14.35;6.10;;;11.50;62.50;;;;;;5114578;28;20550;-79
2021/10/20 06:31:01;;;;;;;15.88;6.03;;;11.50;62.90;;;;;;5115608;28;20035;-78
2021/10/20 06:33:27;;;;;;;14.38;5.53;;;11.30;63.40;;;;;;5123590;28;20437;-78
2021/10/20 06:35:54;;;;;;;13.35;5.97;;;11.30;64.00;;;;;;5128295;28;20036;-78
2021/10/20 06:38:21;;;;;;;9.98;5.15;;;11.20;64.10;;;;;;5118949;28;20078;-78
2021/10/20 06:40:46;;;;;;;11.55;5.43;;;11.30;64.10;;;;;;5114090;28;20115;-78
2021/10/20 06:43:12;;;;;;;10.52;5.30;;;11.30;63.90;;;;;;5113883;28;20495;-79
2021/10/20 06:45:37;;;;;;;13.90;4.65;;;11.30;64.10;;;;;;5113863;28;20039;-78
2021/10/20 06:48:05;;;;;;;11.57;4.00;;;11.40;64.00;;;;;;5113798;28;20504;-79
2021/10/20 06:50:31;;;;;;;7.35;4.00;;;11.40;64.00;;;;;;5113874;28;20114;-79
2021/10/20 06:52:56;;;;;;;9.43;3.42;;;11.40;63.80;;;;;;5113748;28;20035;-78
2021/10/20 06:55:22;;;;;;;8.15;3.70;;;11.50;63.80;;;;;;5113967;28;20019;-78
2021/10/20 06:57:48;;;;;;;7.72;4.25;;;11.60;64.50;;;;;;5114004;28;20057;-80
2021/10/20 07:00:14;;;;;;;8.48;5.15;;;11.70;63.80;;;;;;5120918;28;20181;-77
2021/10/20 07:02:40;;;;;;;7.95;5.00;;;11.70;63.80;;;;;;5116123;28;20449;-79
2021/10/20 07:05:06;;;;;;;11.18;4.30;;;11.80;63.50;;;;;;5113506;28;20059;-79
2021/10/20 07:07:31;;;;;;;11.52;4.57;;;11.80;63.10;;;;;;5113626;28;20076;-78
2021/10/20 07:09:57;;;;;;;12.50;4.13;;;11.80;63.00;;;;;;5113620;28;20047;-79
2021/10/20 07:12:23;;;;;;;18.67;3.40;;;11.90;62.40;;;;;;5113525;28;20035;-77
2021/10/20 07:14:49;;;;;;;9.27;3.58;;;12.00;61.10;;;;;;5113447;28;20019;-78
2021/10/20 07:17:14;;;;;;;7.95;3.25;;;12.20;60.70;;;;;;5112961;28;20445;-79
2021/10/20 07:19:40;;;;;;;5.15;2.95;;;12.30;60.50;;;;;;5111838;28;20027;-78
2021/10/20 07:22:07;;;;;;;11.63;3.63;;;12.40;60.20;;;;;;5115581;28;20023;-79
2021/10/20 07:24:33;;;;;;;8.15;3.70;;;12.50;59.80;;;;;;5114974;28;20099;-78
2021/10/20 07:26:59;;;;;;;8.48;4.40;;;12.60;60.00;;;;;;5113684;28;20027;-79
2021/10/20 07:29:25;;;;;;;7.05;3.85;;;12.80;59.80;;;;;;5113019;28;20046;-79
2021/10/20 07:31:50;;;;;;;8.07;3.83;;;12.90;59.50;;;;;;5113369;28;20126;-79
2021/10/20 07:34:16;;;;;;;10.77;3.55;;;13.00;59.30;;;;;;5113276;28;20024;-80
2021/10/20 07:36:42;;;;;;;13.90;4.32;;;13.10;58.50;;;;;;5113139;28;20051;-78
2021/10/20 07:39:09;;;;;;;10.60;4.30;;;13.20;58.60;;;;;;5112961;28;20034;-79
2021/10/20 07:41:35;;;;;;;9.05;4.07;;;13.40;58.80;;;;;;5113209;28;20019;-79
2021/10/20 07:44:02;;;;;;;10.63;4.38;;;13.50;58.80;;;;;;5111294;28;20081;-79
2021/10/20 07:46:27;;;;;;;8.45;4.13;;;13.70;58.80;;;;;;5113179;28;20024;-80
2021/10/20 07:48:53;;;;;;;10.70;3.72;;;13.80;58.60;;;;;;5113022;28;20039;-79
2021/10/20 07:51:18;;;;;;;7.82;3.17;;;14.00;58.10;;;;;;5112916;28;20051;-79
2021/10/20 07:53:44;;;;;;;5.40;2.80;;;14.20;57.30;;;;;;5113690;28;20024;-79
2021/10/20 07:56:10;;;;;;;6.32;2.85;;;14.40;55.70;;;;;;5112863;28;20466;-79
2021/10/20 07:58:35;;;;;;;5.45;2.35;;;14.60;53.40;;;;;;5112671;28;20035;-79
2021/10/20 08:01:01;;;;;;;4.45;2.28;;;14.80;53.10;;;;;;5112706;28;20051;-79
2021/10/20 08:03:28;;;;;;;9.43;2.10;;;15.10;50.40;;;;;;5112867;28;20062;-79
2021/10/20 08:05:54;;;;;;;2.47;1.35;;;15.90;40.30;;;;;;5112934;28;20020;-79
2021/10/20 08:08:19;;;;;;;3.58;1.30;;;16.50;38.40;;;;;;5112680;28;20039;-80
2021/10/20 08:10:45;;;;;;;3.38;1.55;;;16.80;37.60;;;;;;5112494;28;20016;-80
2021/10/20 08:13:11;;;;;;;2.22;1.33;;;17.20;36.80;;;;;;5112432;28;20043;-80
2021/10/20 08:15:39;;;;;;;2.50;1.25;;;17.50;36.30;;;;;;5112493;28;20134;-80
2021/10/20 08:18:05;;;;;;;1.40;1.30;;;17.90;34.00;;;;;;5112248;28;20042;-79
2021/10/20 08:20:34;;;;;;;2.53;1.27;;;18.30;33.10;;;;;;5112706;28;20024;-79
2021/10/20 08:23:00;;;;;;;3.92;1.10;;;18.50;32.30;;;;;;5112562;28;20103;-79
2021/10/20 08:25:26;;;;;;;2.28;1.35;;;18.70;31.00;;;;;;5112588;28;20034;-80
2021/10/20 08:27:52;;;;;;;3.53;1.23;;;18.90;30.80;;;;;;5112615;28;20020;-79
2021/10/20 08:30:18;;;;;;;5.07;1.63;;;19.10;30.20;;;;;;5112668;28;20476;-80
2021/10/20 08:32:52;;;;;;;8.35;1.75;;;19.20;33.10;;;;;;5112524;28;20047;-81
2021/10/20 08:35:19;;;;;;;6.45;2.20;;;19.30;34.70;;;;;;5112764;28;20488;-80
2021/10/20 08:37:46;;;;;;;4.78;2.03;;;19.40;35.70;;;;;;5112373;28;20102;-79
2021/10/20 08:40:13;;;;;;;5.50;1.90;;;19.40;34.50;;;;;;5112323;28;20031;-80
2021/10/20 08:42:39;;;;;;;4.07;2.00;;;19.40;36.30;;;;;;5112476;28;20023;-80
2021/10/20 08:45:07;;;;;;;4.53;1.40;;;19.40;34.30;;;;;;5112258;28;20028;-81
2021/10/20 08:47:33;;;;;;;1.70;1.10;;;19.50;32.30;;;;;;5112065;28;20050;-80
2021/10/20 08:50:05;;;;;;;3.70;1.40;;;19.50;31.50;;;;;;5112310;28;20067;-81
2021/10/20 08:52:31;;;;;;;1.58;1.20;;;19.50;31.10;;;;;;5111808;28;20019;-80
2021/10/20 08:54:58;;;;;;;3.15;1.30;;;19.50;31.70;;;;;;5113193;28;20038;-79
2021/10/20 08:57:24;;;;;;;2.13;1.42;;;19.50;32.50;;;;;;5115525;28;20032;-80
2021/10/20 08:59:50;;;;;;;2.03;1.27;;;19.50;32.40;;;;;;5115804;28;20044;-79
2021/10/20 09:02:15;;;;;;;2.88;1.55;;;19.40;32.60;;;;;;5115694;28;20331;-80
2021/10/20 09:04:43;;;;;;;2.20;1.40;;;19.30;33.20;;;;;;5115693;28;20036;-80
2021/10/20 09:07:14;;;;;;;2.00;1.23;;;19.40;33.20;;;;;;5114919;28;20328;-80
2021/10/20 09:09:40;;;;;;;2.15;1.45;;;19.50;33.50;;;;;;5115100;28;20028;-80
2021/10/20 09:12:06;;;;;;;2.30;1.20;;;19.60;33.00;;;;;;5114980;28;20026;-80
2021/10/20 09:14:32;;;;;;;2.05;1.00;;;19.70;33.70;;;;;;5115232;28;20080;-80
2021/10/20 09:17:03;;;;;;;3.80;1.50;;;19.90;32.90;;;;;;5113961;28;20100;-81
2021/10/20 09:19:32;;;;;;;3.47;1.42;;;20.00;32.60;;;;;;5115285;28;20023;-80
2021/10/20 09:22:02;;;;;;;4.32;1.55;;;19.90;33.20;;;;;;5115545;28;20019;-80
2021/10/20 09:24:44;;;;;;;1.40;1.25;;;20.00;33.20;;;;;;5115016;28;20043;-80
2021/10/20 09:27:26;;;;;;;2.08;1.40;;;20.20;33.50;;;;;;5115173;28;20026;-80
2021/10/20 09:30:12;;;;;;;2.10;1.58;;;20.30;33.20;;;;;;5114988;28;20564;-80
2021/10/20 09:32:38;;;;;;;;;;;20.00;33.50;;;;;;5115406;28;20051;-80
2021/10/20 09:35:04;;;;;;;;;;;19.90;34.10;;;;;;5115625;28;19904;-80
2021/10/20 09:37:30;;;;;;;5.38;1.67;;;19.80;34.90;;;;;;5115190;28;20340;-80
2021/10/20 09:40:04;;;;;;;2.40;1.30;;;19.90;35.10;;;;;;5115121;28;20062;-79
2021/10/20 09:42:41;;;;;;;1.98;1.30;;;19.90;35.30;;;;;;5114659;28;20088;-81
2021/10/20 09:45:07;;;;;;;5.40;1.67;;;19.90;35.60;;;;;;5114843;28;20106;-81
2021/10/20 09:47:32;;;;;;;3.85;1.67;;;20.10;35.40;;;;;;5114897;28;20102;-79
2021/10/20 09:49:58;;;;;;;2.75;1.70;;;20.10;35.90;;;;;;5115209;28;20038;-79
2021/10/20 09:52:25;;;;;;;2.95;1.58;;;20.30;36.30;;;;;;5115881;28;20024;-80
2021/10/20 09:54:51;;;;;;;2.13;1.50;;;20.40;35.80;;;;;;5114826;28;20031;-79
2021/10/20 09:57:17;;;;;;;2.40;1.80;;;20.40;36.10;;;;;;5113230;28;20083;-80
2021/10/20 09:59:45;;;;;;;2.25;1.55;;;20.50;36.40;;;;;;5114805;28;20348;-79
2021/10/20 10:02:12;;;;;;;1.77;1.30;;;20.60;36.70;;;;;;5114600;28;20027;-79
2021/10/20 10:04:39;;;;;;;1.42;1.30;;;20.70;36.00;;;;;;5114477;28;20043;-80
2021/10/20 10:07:05;;;;;;;5.85;1.88;;;20.60;36.40;;;;;;5113787;28;20023;-80
2021/10/20 10:09:31;;;;;;;5.85;1.75;;;20.60;36.90;;;;;;5114447;28;20475;-79
2021/10/20 10:12:02;;;;;;;6.05;1.75;;;20.70;36.90;;;;;;5114388;28;20015;-79
2021/10/20 10:14:38;;;;;;;2.88;1.70;;;20.70;36.60;;;;;;5114755;28;20490;-79
2021/10/20 10:17:04;;;;;;;3.70;1.90;;;20.80;36.70;;;;;;5114185;28;20404;-80
2021/10/20 10:19:34;;;;;;;2.78;1.60;;;20.60;37.10;;;;;;5113937;28;20128;-79
2021/10/20 10:21:59;;;;;;;2.75;1.67;;;20.60;37.50;;;;;;5112831;28;20034;-80
2021/10/20 10:24:34;;;;;;;1.98;1.35;;;20.70;37.50;;;;;;5114233;28;20024;-79
2021/10/20 10:27:09;;;;;;;3.65;1.65;;;20.90;37.40;;;;;;5114112;28;20138;-79
2021/10/20 10:29:46;;;;;;;3.15;1.50;;;21.00;37.40;;;;;;5114151;28;20411;-79
2021/10/20 10:32:12;;;;;;;1.77;1.35;;;21.10;37.50;;;;;;5113892;28;20043;-80
2021/10/20 10:34:44;;;;;;;2.40;1.52;;;21.40;37.30;;;;;;5114051;28;20439;-80
2021/10/20 10:37:25;;;;;;;1.67;1.20;;;21.60;37.20;;;;;;5113713;28;20066;-80
2021/10/20 10:39:51;;;;;;;3.67;1.63;;;21.30;36.80;;;;;;5113728;28;20024;-81
2021/10/20 10:42:17;;;;;;;5.43;1.30;;;21.10;37.20;;;;;;5113650;28;20107;-80
2021/10/20 10:44:48;;;;;;;3.00;1.20;;;21.00;37.50;;;;;;5113719;28;20028;-80
2021/10/20 10:47:19;;;;;;;2.58;1.65;;;20.80;37.80;;;;;;5113403;28;20011;-79
2021/10/20 10:49:56;;;;;;;2.55;1.65;;;20.80;38.50;;;;;;5113128;28;20070;-79
2021/10/20 10:52:37;;;;;;;3.45;1.90;;;20.70;38.50;;;;;;5111845;28;20117;-81
2021/10/20 10:55:20;;;;;;;4.55;2.08;;;20.70;38.80;;;;;;5113400;28;20024;-81
2021/10/20 10:57:58;;;;;;;1.70;1.27;;;20.80;38.60;;;;;;5113274;28;20097;-79
2021/10/20 11:00:30;;;;;;;4.40;1.38;;;21.20;38.30;;;;;;5113219;28;20034;-81
2021/10/20 11:02:58;;;;;;;3.28;1.63;;;21.30;38.20;;;;;;5113392;28;20020;-80
2021/10/20 11:05:30;;;;;;;3.75;2.03;;;21.30;38.30;;;;;;5113010;28;20016;-80
2021/10/20 11:08:05;;;;;;;3.25;1.60;;;21.50;38.50;;;;;;5113532;28;20024;-79
2021/10/20 11:10:33;;;;;;;5.07;1.67;;;21.40;37.70;;;;;;5115037;28;20114;-80
2021/10/20 11:12:59;;;;;;;2.63;1.55;;;21.20;38.70;;;;;;5114329;28;20472;-82
2021/10/20 11:15:27;;;;;;;3.17;1.40;;;21.40;38.30;;;;;;5112279;28;20039;-81
2021/10/20 11:17:53;;;;;;;4.78;1.35;;;21.50;38.10;;;;;;5113262;28;20053;-80
2021/10/20 11:20:20;;;;;;;2.75;1.45;;;21.60;37.90;;;;;;5113381;28;20142;-80
2021/10/20 11:22:52;;;;;;;2.67;1.55;;;21.50;37.90;;;;;;5113170;28;20093;-80
2021/10/20 11:25:19;;;;;;;3.60;1.50;;;21.50;38.10;;;;;;5113023;28;20039;-80
2021/10/20 11:27:50;;;;;;;2.25;1.38;;;21.70;38.10;;;;;;5113032;28;20035;-81
2021/10/20 11:30:18;;;;;;;1.55;1.42;;;21.90;37.60;;;;;;5113052;28;20092;-80
2021/10/20 11:32:45;;;;;;;5.57;1.83;;;22.00;37.50;;;;;;5112843;28;20044;-81
2021/10/20 11:35:23;;;;;;;1.40;1.27;;;22.00;37.90;;;;;;5112857;28;20085;-82
2021/10/20 11:37:52;;;;;;;3.55;1.92;;;22.00;37.60;;;;;;5112908;28;20471;-82
2021/10/20 11:40:18;;;;;;;2.85;1.45;;;22.00;37.50;;;;;;5112809;28;20483;-79
2021/10/20 11:42:44;;;;;;;3.25;1.70;;;22.00;38.00;;;;;;5112881;28;20193;-79
2021/10/20 11:45:09;;;;;;;2.25;1.38;;;21.90;38.40;;;;;;5113036;28;20106;-81
2021/10/20 11:47:39;;;;;;;4.60;1.60;;;21.80;38.70;;;;;;5112614;28;20027;-79
2021/10/20 11:50:06;;;;;;;2.33;1.52;;;21.60;38.80;;;;;;5112372;28;20030;-82
2021/10/20 11:52:34;;;;;;;2.72;1.65;;;21.50;39.40;;;;;;5112751;28;20361;-82
2021/10/20 11:55:00;;;;;;;3.08;1.77;;;21.50;39.40;;;;;;5112835;28;20030;-81
2021/10/20 11:57:26;;;;;;;2.53;1.63;;;21.50;39.60;;;;;;5112715;28;20034;-82
2021/10/20 11:59:52;;;;;;;6.18;2.03;;;21.70;39.30;;;;;;5112779;28;20387;-82
2021/10/20 12:02:18;;;;;;;1.33;1.20;;;21.50;39.80;;;;;;5112420;28;20486;-81
2021/10/20 12:04:45;;;;;;;2.85;1.77;;;21.40;40.20;;;;;;5111129;28;20026;-82
2021/10/20 12:07:16;;;;;;;4.30;1.88;;;21.40;40.40;;;;;;5112536;28;20028;-81
2021/10/20 12:09:44;;;;;;;2.78;1.63;;;21.50;40.60;;;;;;5111140;28;20031;-80
2021/10/20 12:12:11;;;;;;;4.90;2.22;;;21.80;40.30;;;;;;5112652;28;20529;-80
2021/10/20 12:14:43;;;;;;;4.32;1.67;;;22.00;40.00;;;;;;5112546;28;20036;-81
2021/10/20 12:17:11;;;;;;;2.33;1.77;;;22.40;38.80;;;;;;5112437;28;20028;-81
2021/10/20 12:19:40;;;;;;;3.63;1.90;;;22.80;38.40;;;;;;5112583;28;20116;-81
2021/10/20 12:22:11;;;;;;;2.00;1.50;;;22.60;38.20;;;;;;5112380;28;20035;-80
2021/10/20 12:24:49;;;;;;;5.05;1.80;;;22.40;38.60;;;;;;5112479;28;20024;-80
2021/10/20 12:27:19;;;;;;;6.00;1.85;;;22.40;39.10;;;;;;5111112;28;20493;-80
2021/10/20 12:29:47;;;;;;;2.75;1.85;;;22.00;39.50;;;;;;5113319;28;20161;-81
2021/10/20 12:32:18;;;;;;;3.47;1.90;;;21.80;40.60;;;;;;5115076;28;20040;-80
2021/10/20 12:35:14;;;;;;;4.40;1.80;;;21.50;41.80;;;;;;5116354;28;20479;-79
2021/10/20 12:37:47;;;;;;;3.53;2.10;;;21.10;42.90;;;;;;5115132;28;20027;-80
2021/10/20 12:40:12;;;;;;;4.53;2.08;;;20.90;44.00;;;;;;5114883;28;20069;-80
2021/10/20 12:42:50;;;;;;;5.47;2.17;;;20.90;44.30;;;;;;5115210;28;20032;-80
2021/10/20 12:45:16;;;;;;;3.13;2.25;;;20.90;44.50;;;;;;5117922;28;20016;-80